sensor_id;sensor_type;location;lat;lon;timestamp;P1;durP1;ratioP1;P2;durP2;ratioP2
34035;SDS011;63481;52.588;22.472;2023-04-01T00:00:34;16.60;;;11.50;;
34035;SDS011;63481;52.588;22.472;2023-04-01T00:01:27;17.50;;;10.90;;
34035;SDS011;63481;52.588;22.472;2023-04-01T00:02:20;16.80;;;10.90;;
34035;SDS011;63481;52.588;22.472;2023-04-01T00:03:12;16.40;;;10.90;;
34035;SDS011;63481;52.588;22.472;2023-04-01T00:04:05;19.10;;;11.40;;
34035;SDS011;63481;52.588;22.472;2023-04-01T00:04:57;15.90;;;10.90;;
34035;SDS011;63481;52.588;22.472;2023-04-01T00:05:50;17.00;;;11.30;;
34035;SDS011;63481;52.588;22.472;2023-04-01T00:06:43;17.80;;;12.20;;
34035;SDS011;63481;52.588;22.472;2023-04-01T00:07:35;19.60;;;12.60;;
34035;SDS011;63481;52.588;22.472;2023-04-01T00:08:32;18.30;;;12.00;;
34035;SDS011;63481;52.588;22.472;2023-04-01T00:09:25;17.70;;;12.30;;
34035;SDS011;63481;52.588;22.472;2023-04-01T00:10:18;17.50;;;11.20;;
34035;SDS011;63481;52.588;22.472;2023-04-01T00:11:10;18.40;;;12.00;;
34035;SDS011;63481;52.588;22.472;2023-04-01T00:12:03;18.40;;;13.20;;
34035;SDS011;63481;52.588;22.472;2023-04-01T00:12:56;19.70;;;13.40;;
34035;SDS011;63481;52.588;22.472;2023-04-01T00:13:49;20.60;;;13.00;;
34035;SDS011;63481;52.588;22.472;2023-04-01T00:14:42;18.40;;;12.10;;
34035;SDS011;63481;52.588;22.472;2023-04-01T00:15:34;19.50;;;13.00;;
34035;SDS011;63481;52.588;22.472;2023-04-01T00:16:27;19.90;;;12.20;;
34035;SDS011;63481;52.588;22.472;2023-04-01T00:17:20;18.00;;;13.10;;
34035;SDS011;63481;52.588;22.472;2023-04-01T00:18:13;17.60;;;11.70;;
34035;SDS011;63481;52.588;22.472;2023-04-01T00:19:06;18.50;;;12.40;;
34035;SDS011;63481;52.588;22.472;2023-04-01T00:19:59;16.20;;;12.40;;
34035;SDS011;63481;52.588;22.472;2023-04-01T00:20:52;19.90;;;12.60;;
34035;SDS011;63481;52.588;22.472;2023-04-01T00:21:45;19.60;;;12.40;;
34035;SDS011;63481;52.588;22.472;2023-04-01T00:22:38;17.90;;;11.90;;
34035;SDS011;63481;52.588;22.472;2023-04-01T00:23:31;19.00;;;12.10;;
34035;SDS011;63481;52.588;22.472;2023-04-01T00:24:24;15.70;;;11.90;;
34035;SDS011;63481;52.588;22.472;2023-04-01T00:25:17;18.20;;;11.80;;
34035;SDS011;63481;52.588;22.472;2023-04-01T00:26:10;20.00;;;12.70;;
34035;SDS011;63481;52.588;22.472;2023-04-01T00:27:04;21.10;;;12.40;;
34035;SDS011;63481;52.588;22.472;2023-04-01T00:27:56;19.80;;;13.00;;
34035;SDS011;63481;52.588;22.472;2023-04-01T00:28:49;20.00;;;12.90;;
34035;SDS011;63481;52.588;22.472;2023-04-01T00:29:43;18.20;;;12.30;;
34035;SDS011;63481;52.588;22.472;2023-04-01T00:30:36;20.60;;;12.70;;
34035;SDS011;63481;52.588;22.472;2023-04-01T00:31:30;19.50;;;13.10;;
34035;SDS011;63481;52.588;22.472;2023-04-01T00:32:22;18.30;;;12.80;;
34035;SDS011;63481;52.588;22.472;2023-04-01T00:33:15;21.40;;;13.20;;
34035;SDS011;63481;52.588;22.472;2023-04-01T00:34:08;19.80;;;13.10;;
34035;SDS011;63481;52.588;22.472;2023-04-01T00:35:01;19.60;;;13.50;;
34035;SDS011;63481;52.588;22.472;2023-04-01T00:35:54;21.60;;;14.20;;
34035;SDS011;63481;52.588;22.472;2023-04-01T00:36:47;21.90;;;13.80;;
34035;SDS011;63481;52.588;22.472;2023-04-01T00:37:39;21.00;;;14.00;;
34035;SDS011;63481;52.588;22.472;2023-04-01T00:38:32;20.70;;;14.10;;
34035;SDS011;63481;52.588;22.472;2023-04-01T00:39:24;22.60;;;13.70;;
34035;SDS011;63481;52.588;22.472;2023-04-01T00:41:19;21.60;;;13.70;;
34035;SDS011;63481;52.588;22.472;2023-04-01T00:42:13;20.80;;;14.30;;
34035;SDS011;63481;52.588;22.472;2023-04-01T00:43:10;22.60;;;15.00;;
34035;SDS011;63481;52.588;22.472;2023-04-01T00:44:15;19.80;;;13.50;;
34035;SDS011;63481;52.588;22.472;2023-04-01T00:46:27;18.40;;;13.90;;
34035;SDS011;63481;52.588;22.472;2023-04-01T00:47:20;22.20;;;14.10;;
34035;SDS011;63481;52.588;22.472;2023-04-01T00:49:08;17.90;;;13.50;;
34035;SDS011;63481;52.588;22.472;2023-04-01T00:50:01;18.20;;;13.40;;
34035;SDS011;63481;52.588;22.472;2023-04-01T00:51:17;19.90;;;13.90;;
34035;SDS011;63481;52.588;22.472;2023-04-01T00:52:16;21.70;;;14.50;;
34035;SDS011;63481;52.588;22.472;2023-04-01T00:53:14;18.80;;;13.10;;
34035;SDS011;63481;52.588;22.472;2023-04-01T00:54:10;21.00;;;13.20;;
34035;SDS011;63481;52.588;22.472;2023-04-01T00:55:04;20.80;;;13.80;;
34035;SDS011;63481;52.588;22.472;2023-04-01T00:56:07;23.10;;;13.50;;
34035;SDS011;63481;52.588;22.472;2023-04-01T00:58:31;20.10;;;13.20;;
34035;SDS011;63481;52.588;22.472;2023-04-01T00:59:31;22.10;;;14.30;;
34035;SDS011;63481;52.588;22.472;2023-04-01T01:00:31;23.90;;;14.30;;
34035;SDS011;63481;52.588;22.472;2023-04-01T01:01:25;21.90;;;14.20;;
34035;SDS011;63481;52.588;22.472;2023-04-01T01:02:18;21.00;;;14.60;;
34035;SDS011;63481;52.588;22.472;2023-04-01T01:03:11;22.50;;;15.60;;
34035;SDS011;63481;52.588;22.472;2023-04-01T01:04:04;21.10;;;14.20;;
34035;SDS011;63481;52.588;22.472;2023-04-01T01:04:58;21.00;;;14.00;;
34035;SDS011;63481;52.588;22.472;2023-04-01T01:08:18;20.60;;;14.20;;
34035;SDS011;63481;52.588;22.472;2023-04-01T01:10:31;20.30;;;14.10;;
34035;SDS011;63481;52.588;22.472;2023-04-01T01:11:34;22.60;;;14.60;;
34035;SDS011;63481;52.588;22.472;2023-04-01T01:12:40;22.20;;;14.80;;
34035;SDS011;63481;52.588;22.472;2023-04-01T01:13:41;18.90;;;14.10;;
34035;SDS011;63481;52.588;22.472;2023-04-01T01:14:53;23.30;;;13.20;;
34035;SDS011;63481;52.588;22.472;2023-04-01T01:18:19;19.80;;;14.00;;
34035;SDS011;63481;52.588;22.472;2023-04-01T01:24:03;23.40;;;14.40;;
34035;SDS011;63481;52.588;22.472;2023-04-01T01:25:11;21.90;;;13.40;;
34035;SDS011;63481;52.588;22.472;2023-04-01T01:27:29;24.20;;;15.10;;
34035;SDS011;63481;52.588;22.472;2023-04-01T01:28:28;20.40;;;14.50;;
34035;SDS011;63481;52.588;22.472;2023-04-01T01:31:23;21.70;;;14.80;;
34035;SDS011;63481;52.588;22.472;2023-04-01T01:34:13;25.70;;;15.30;;
34035;SDS011;63481;52.588;22.472;2023-04-01T01:36:28;20.70;;;13.70;;
34035;SDS011;63481;52.588;22.472;2023-04-01T01:37:27;20.50;;;13.80;;
34035;SDS011;63481;52.588;22.472;2023-04-01T01:38:26;21.30;;;13.90;;
34035;SDS011;63481;52.588;22.472;2023-04-01T01:39:30;22.40;;;13.40;;
34035;SDS011;63481;52.588;22.472;2023-04-01T01:40:26;20.00;;;13.60;;
34035;SDS011;63481;52.588;22.472;2023-04-01T01:41:20;18.30;;;13.20;;
34035;SDS011;63481;52.588;22.472;2023-04-01T01:42:16;23.30;;;13.90;;
34035;SDS011;63481;52.588;22.472;2023-04-01T01:43:14;18.90;;;13.50;;
34035;SDS011;63481;52.588;22.472;2023-04-01T01:44:12;24.00;;;14.50;;
34035;SDS011;63481;52.588;22.472;2023-04-01T01:45:08;19.30;;;13.60;;
34035;SDS011;63481;52.588;22.472;2023-04-01T01:46:05;18.40;;;12.90;;
34035;SDS011;63481;52.588;22.472;2023-04-01T01:47:03;21.70;;;13.30;;
34035;SDS011;63481;52.588;22.472;2023-04-01T01:47:57;19.70;;;12.70;;
34035;SDS011;63481;52.588;22.472;2023-04-01T01:48:52;22.10;;;14.20;;
34035;SDS011;63481;52.588;22.472;2023-04-01T01:49:46;22.30;;;13.70;;
34035;SDS011;63481;52.588;22.472;2023-04-01T01:50:39;20.30;;;14.10;;
34035;SDS011;63481;52.588;22.472;2023-04-01T01:51:33;22.20;;;13.60;;
34035;SDS011;63481;52.588;22.472;2023-04-01T01:52:28;20.40;;;12.80;;
34035;SDS011;63481;52.588;22.472;2023-04-01T01:53:22;21.90;;;13.30;;
34035;SDS011;63481;52.588;22.472;2023-04-01T01:54:17;18.30;;;13.30;;
34035;SDS011;63481;52.588;22.472;2023-04-01T01:56:38;24.10;;;13.40;;
34035;SDS011;63481;52.588;22.472;2023-04-01T01:57:33;18.90;;;14.00;;
34035;SDS011;63481;52.588;22.472;2023-04-01T01:58:38;19.50;;;13.40;;
34035;SDS011;63481;52.588;22.472;2023-04-01T01:59:37;17.70;;;12.30;;
34035;SDS011;63481;52.588;22.472;2023-04-01T02:00:33;20.10;;;13.00;;
34035;SDS011;63481;52.588;22.472;2023-04-01T02:01:28;21.10;;;13.90;;
34035;SDS011;63481;52.588;22.472;2023-04-01T02:02:28;22.20;;;13.40;;
34035;SDS011;63481;52.588;22.472;2023-04-01T02:03:24;22.90;;;13.90;;
34035;SDS011;63481;52.588;22.472;2023-04-01T02:04:19;20.90;;;14.40;;
34035;SDS011;63481;52.588;22.472;2023-04-01T02:05:15;18.70;;;13.60;;
34035;SDS011;63481;52.588;22.472;2023-04-01T02:06:14;19.90;;;13.50;;
34035;SDS011;63481;52.588;22.472;2023-04-01T02:07:11;21.70;;;13.60;;
34035;SDS011;63481;52.588;22.472;2023-04-01T02:08:51;20.70;;;13.30;;
34035;SDS011;63481;52.588;22.472;2023-04-01T02:09:51;21.30;;;13.10;;
34035;SDS011;63481;52.588;22.472;2023-04-01T02:10:46;19.10;;;13.40;;
34035;SDS011;63481;52.588;22.472;2023-04-01T02:11:50;20.50;;;13.60;;
34035;SDS011;63481;52.588;22.472;2023-04-01T02:13:05;22.10;;;14.80;;
34035;SDS011;63481;52.588;22.472;2023-04-01T02:14:13;19.90;;;14.20;;
34035;SDS011;63481;52.588;22.472;2023-04-01T02:15:18;24.80;;;14.70;;
34035;SDS011;63481;52.588;22.472;2023-04-01T02:16:17;21.40;;;15.50;;
34035;SDS011;63481;52.588;22.472;2023-04-01T02:17:15;23.10;;;15.40;;
34035;SDS011;63481;52.588;22.472;2023-04-01T02:18:10;23.40;;;16.00;;
34035;SDS011;63481;52.588;22.472;2023-04-01T02:19:05;22.50;;;15.30;;
34035;SDS011;63481;52.588;22.472;2023-04-01T02:20:02;20.90;;;15.50;;
34035;SDS011;63481;52.588;22.472;2023-04-01T02:21:01;23.50;;;14.80;;
34035;SDS011;63481;52.588;22.472;2023-04-01T02:21:58;25.90;;;15.60;;
34035;SDS011;63481;52.588;22.472;2023-04-01T02:22:54;24.50;;;15.80;;
34035;SDS011;63481;52.588;22.472;2023-04-01T02:23:49;24.90;;;15.30;;
34035;SDS011;63481;52.588;22.472;2023-04-01T02:24:45;19.00;;;14.80;;
34035;SDS011;63481;52.588;22.472;2023-04-01T02:25:39;21.40;;;15.70;;
34035;SDS011;63481;52.588;22.472;2023-04-01T02:26:34;21.60;;;15.60;;
34035;SDS011;63481;52.588;22.472;2023-04-01T02:27:28;25.00;;;16.00;;
34035;SDS011;63481;52.588;22.472;2023-04-01T02:28:22;21.70;;;15.30;;
34035;SDS011;63481;52.588;22.472;2023-04-01T02:29:18;21.90;;;15.60;;
34035;SDS011;63481;52.588;22.472;2023-04-01T02:30:13;20.80;;;15.30;;
34035;SDS011;63481;52.588;22.472;2023-04-01T02:31:10;24.20;;;16.10;;
34035;SDS011;63481;52.588;22.472;2023-04-01T02:32:05;23.50;;;16.60;;
34035;SDS011;63481;52.588;22.472;2023-04-01T02:32:59;27.70;;;17.90;;
34035;SDS011;63481;52.588;22.472;2023-04-01T02:33:53;23.70;;;16.40;;
34035;SDS011;63481;52.588;22.472;2023-04-01T02:34:47;24.30;;;16.50;;
34035;SDS011;63481;52.588;22.472;2023-04-01T02:35:41;27.40;;;17.50;;
34035;SDS011;63481;52.588;22.472;2023-04-01T02:36:34;26.20;;;17.40;;
34035;SDS011;63481;52.588;22.472;2023-04-01T02:37:29;27.70;;;18.00;;
34035;SDS011;63481;52.588;22.472;2023-04-01T02:38:22;26.40;;;17.20;;
34035;SDS011;63481;52.588;22.472;2023-04-01T02:39:15;25.30;;;17.10;;
34035;SDS011;63481;52.588;22.472;2023-04-01T02:40:10;27.20;;;17.40;;
34035;SDS011;63481;52.588;22.472;2023-04-01T02:41:04;24.20;;;16.80;;
34035;SDS011;63481;52.588;22.472;2023-04-01T02:41:58;28.10;;;17.90;;
34035;SDS011;63481;52.588;22.472;2023-04-01T02:42:50;23.80;;;16.70;;
34035;SDS011;63481;52.588;22.472;2023-04-01T02:43:43;26.60;;;17.30;;
34035;SDS011;63481;52.588;22.472;2023-04-01T02:44:36;24.70;;;17.60;;
34035;SDS011;63481;52.588;22.472;2023-04-01T02:45:29;25.20;;;17.10;;
34035;SDS011;63481;52.588;22.472;2023-04-01T02:46:24;24.80;;;16.90;;
34035;SDS011;63481;52.588;22.472;2023-04-01T02:47:17;25.80;;;16.90;;
34035;SDS011;63481;52.588;22.472;2023-04-01T02:48:10;25.50;;;18.10;;
34035;SDS011;63481;52.588;22.472;2023-04-01T02:49:05;25.60;;;17.10;;
34035;SDS011;63481;52.588;22.472;2023-04-01T02:49:59;24.30;;;16.80;;
34035;SDS011;63481;52.588;22.472;2023-04-01T02:50:52;24.90;;;17.60;;
34035;SDS011;63481;52.588;22.472;2023-04-01T02:51:45;27.80;;;18.10;;
34035;SDS011;63481;52.588;22.472;2023-04-01T02:52:38;24.00;;;18.20;;
34035;SDS011;63481;52.588;22.472;2023-04-01T02:53:32;26.40;;;18.70;;
34035;SDS011;63481;52.588;22.472;2023-04-01T02:54:25;25.20;;;17.60;;
34035;SDS011;63481;52.588;22.472;2023-04-01T02:55:18;27.90;;;19.00;;
34035;SDS011;63481;52.588;22.472;2023-04-01T02:56:11;24.80;;;18.60;;
34035;SDS011;63481;52.588;22.472;2023-04-01T02:57:05;29.00;;;19.50;;
34035;SDS011;63481;52.588;22.472;2023-04-01T02:57:58;26.20;;;19.30;;
34035;SDS011;63481;52.588;22.472;2023-04-01T02:58:52;28.40;;;19.20;;
34035;SDS011;63481;52.588;22.472;2023-04-01T02:59:46;25.90;;;19.70;;
34035;SDS011;63481;52.588;22.472;2023-04-01T03:00:40;27.10;;;18.70;;
34035;SDS011;63481;52.588;22.472;2023-04-01T03:01:33;28.70;;;20.40;;
34035;SDS011;63481;52.588;22.472;2023-04-01T03:02:26;32.60;;;20.30;;
34035;SDS011;63481;52.588;22.472;2023-04-01T03:03:19;29.80;;;19.10;;
34035;SDS011;63481;52.588;22.472;2023-04-01T03:04:13;31.20;;;20.70;;
34035;SDS011;63481;52.588;22.472;2023-04-01T03:05:06;28.90;;;19.70;;
34035;SDS011;63481;52.588;22.472;2023-04-01T03:06:10;31.00;;;20.30;;
34035;SDS011;63481;52.588;22.472;2023-04-01T03:07:04;30.60;;;20.40;;
34035;SDS011;63481;52.588;22.472;2023-04-01T03:07:56;29.80;;;20.60;;
34035;SDS011;63481;52.588;22.472;2023-04-01T03:08:50;28.00;;;19.90;;
34035;SDS011;63481;52.588;22.472;2023-04-01T03:09:43;34.10;;;21.30;;
34035;SDS011;63481;52.588;22.472;2023-04-01T03:10:36;32.10;;;19.70;;
34035;SDS011;63481;52.588;22.472;2023-04-01T03:11:30;31.80;;;21.80;;
34035;SDS011;63481;52.588;22.472;2023-04-01T03:12:23;29.80;;;20.90;;
34035;SDS011;63481;52.588;22.472;2023-04-01T03:13:17;29.60;;;20.90;;
34035;SDS011;63481;52.588;22.472;2023-04-01T03:14:10;30.50;;;21.40;;
34035;SDS011;63481;52.588;22.472;2023-04-01T03:15:03;33.40;;;21.90;;
34035;SDS011;63481;52.588;22.472;2023-04-01T03:15:57;30.30;;;21.10;;
34035;SDS011;63481;52.588;22.472;2023-04-01T03:16:50;31.50;;;21.60;;
34035;SDS011;63481;52.588;22.472;2023-04-01T03:17:44;33.30;;;22.90;;
34035;SDS011;63481;52.588;22.472;2023-04-01T03:18:37;36.60;;;22.80;;
34035;SDS011;63481;52.588;22.472;2023-04-01T03:19:31;33.80;;;22.10;;
34035;SDS011;63481;52.588;22.472;2023-04-01T03:20:24;34.10;;;22.50;;
34035;SDS011;63481;52.588;22.472;2023-04-01T03:21:19;36.20;;;22.20;;
34035;SDS011;63481;52.588;22.472;2023-04-01T03:22:13;36.10;;;23.50;;
34035;SDS011;63481;52.588;22.472;2023-04-01T03:23:06;33.20;;;21.70;;
34035;SDS011;63481;52.588;22.472;2023-04-01T03:23:59;29.40;;;20.90;;
34035;SDS011;63481;52.588;22.472;2023-04-01T03:24:52;33.70;;;22.50;;
34035;SDS011;63481;52.588;22.472;2023-04-01T03:25:46;30.10;;;21.40;;
34035;SDS011;63481;52.588;22.472;2023-04-01T03:26:40;32.80;;;22.30;;
34035;SDS011;63481;52.588;22.472;2023-04-01T03:27:33;30.20;;;21.60;;
34035;SDS011;63481;52.588;22.472;2023-04-01T03:28:27;31.30;;;22.70;;
34035;SDS011;63481;52.588;22.472;2023-04-01T03:29:20;29.00;;;20.80;;
34035;SDS011;63481;52.588;22.472;2023-04-01T03:30:12;28.70;;;21.60;;
34035;SDS011;63481;52.588;22.472;2023-04-01T03:31:11;35.10;;;22.00;;
34035;SDS011;63481;52.588;22.472;2023-04-01T03:32:06;34.60;;;22.00;;
34035;SDS011;63481;52.588;22.472;2023-04-01T03:32:59;32.50;;;22.10;;
34035;SDS011;63481;52.588;22.472;2023-04-01T03:33:52;33.60;;;22.20;;
34035;SDS011;63481;52.588;22.472;2023-04-01T03:34:45;30.70;;;22.10;;
34035;SDS011;63481;52.588;22.472;2023-04-01T03:35:38;34.00;;;22.50;;
34035;SDS011;63481;52.588;22.472;2023-04-01T03:36:32;32.60;;;22.30;;
34035;SDS011;63481;52.588;22.472;2023-04-01T03:37:25;33.50;;;22.80;;
34035;SDS011;63481;52.588;22.472;2023-04-01T03:38:18;29.50;;;21.30;;
34035;SDS011;63481;52.588;22.472;2023-04-01T03:39:11;31.10;;;21.50;;
34035;SDS011;63481;52.588;22.472;2023-04-01T03:40:07;31.90;;;22.60;;
34035;SDS011;63481;52.588;22.472;2023-04-01T03:41:00;31.00;;;21.90;;
34035;SDS011;63481;52.588;22.472;2023-04-01T03:41:54;32.80;;;22.40;;
34035;SDS011;63481;52.588;22.472;2023-04-01T03:42:47;35.60;;;22.60;;
34035;SDS011;63481;52.588;22.472;2023-04-01T03:43:40;35.40;;;23.20;;
34035;SDS011;63481;52.588;22.472;2023-04-01T03:44:33;31.50;;;21.90;;
34035;SDS011;63481;52.588;22.472;2023-04-01T03:45:26;31.90;;;22.30;;
34035;SDS011;63481;52.588;22.472;2023-04-01T03:46:19;29.80;;;20.90;;
34035;SDS011;63481;52.588;22.472;2023-04-01T03:47:12;29.90;;;21.70;;
34035;SDS011;63481;52.588;22.472;2023-04-01T03:48:04;31.90;;;22.00;;
34035;SDS011;63481;52.588;22.472;2023-04-01T03:48:57;30.80;;;21.10;;
34035;SDS011;63481;52.588;22.472;2023-04-01T03:49:49;34.50;;;21.60;;
34035;SDS011;63481;52.588;22.472;2023-04-01T03:50:42;30.80;;;22.30;;
34035;SDS011;63481;52.588;22.472;2023-04-01T03:51:36;32.40;;;22.30;;
34035;SDS011;63481;52.588;22.472;2023-04-01T03:52:28;32.80;;;22.30;;
34035;SDS011;63481;52.588;22.472;2023-04-01T03:53:21;31.80;;;22.70;;
34035;SDS011;63481;52.588;22.472;2023-04-01T03:54:14;32.70;;;22.00;;
34035;SDS011;63481;52.588;22.472;2023-04-01T03:55:08;33.40;;;22.40;;
34035;SDS011;63481;52.588;22.472;2023-04-01T03:56:07;33.50;;;22.40;;
34035;SDS011;63481;52.588;22.472;2023-04-01T03:57:01;30.50;;;21.30;;
34035;SDS011;63481;52.588;22.472;2023-04-01T03:57:54;33.70;;;21.70;;
34035;SDS011;63481;52.588;22.472;2023-04-01T03:58:47;32.90;;;21.00;;
34035;SDS011;63481;52.588;22.472;2023-04-01T03:59:39;28.50;;;20.50;;
34035;SDS011;63481;52.588;22.472;2023-04-01T04:00:32;33.30;;;22.60;;
34035;SDS011;63481;52.588;22.472;2023-04-01T04:01:25;27.00;;;20.80;;
34035;SDS011;63481;52.588;22.472;2023-04-01T04:02:20;33.90;;;22.90;;
34035;SDS011;63481;52.588;22.472;2023-04-01T04:03:13;34.20;;;22.10;;
34035;SDS011;63481;52.588;22.472;2023-04-01T04:04:05;30.90;;;22.30;;
34035;SDS011;63481;52.588;22.472;2023-04-01T04:04:58;35.10;;;22.50;;
34035;SDS011;63481;52.588;22.472;2023-04-01T04:05:53;31.00;;;20.20;;
34035;SDS011;63481;52.588;22.472;2023-04-01T04:06:45;31.30;;;21.50;;
34035;SDS011;63481;52.588;22.472;2023-04-01T04:07:38;31.20;;;21.40;;
34035;SDS011;63481;52.588;22.472;2023-04-01T04:08:33;33.80;;;21.20;;
34035;SDS011;63481;52.588;22.472;2023-04-01T04:09:25;32.50;;;21.60;;
34035;SDS011;63481;52.588;22.472;2023-04-01T04:10:18;31.90;;;22.20;;
34035;SDS011;63481;52.588;22.472;2023-04-01T04:11:11;33.40;;;21.80;;
34035;SDS011;63481;52.588;22.472;2023-04-01T04:12:06;28.30;;;20.80;;
34035;SDS011;63481;52.588;22.472;2023-04-01T04:12:59;32.20;;;21.50;;
34035;SDS011;63481;52.588;22.472;2023-04-01T04:13:51;32.50;;;21.40;;
34035;SDS011;63481;52.588;22.472;2023-04-01T04:14:44;31.40;;;21.30;;
34035;SDS011;63481;52.588;22.472;2023-04-01T04:15:38;32.50;;;21.60;;
34035;SDS011;63481;52.588;22.472;2023-04-01T04:16:32;34.50;;;21.40;;
34035;SDS011;63481;52.588;22.472;2023-04-01T04:17:28;33.90;;;22.20;;
34035;SDS011;63481;52.588;22.472;2023-04-01T04:18:21;33.10;;;21.50;;
34035;SDS011;63481;52.588;22.472;2023-04-01T04:19:13;31.40;;;22.30;;
34035;SDS011;63481;52.588;22.472;2023-04-01T04:20:06;33.00;;;22.30;;
34035;SDS011;63481;52.588;22.472;2023-04-01T04:20:59;31.80;;;21.80;;
34035;SDS011;63481;52.588;22.472;2023-04-01T04:21:52;31.40;;;22.50;;
34035;SDS011;63481;52.588;22.472;2023-04-01T04:22:45;32.80;;;23.30;;
34035;SDS011;63481;52.588;22.472;2023-04-01T04:23:37;33.50;;;22.10;;
34035;SDS011;63481;52.588;22.472;2023-04-01T04:24:30;36.20;;;23.50;;
34035;SDS011;63481;52.588;22.472;2023-04-01T04:25:28;38.20;;;23.20;;
34035;SDS011;63481;52.588;22.472;2023-04-01T04:26:21;31.60;;;23.30;;
34035;SDS011;63481;52.588;22.472;2023-04-01T04:27:20;33.30;;;22.60;;
34035;SDS011;63481;52.588;22.472;2023-04-01T04:28:33;35.30;;;23.20;;
34035;SDS011;63481;52.588;22.472;2023-04-01T04:29:27;35.30;;;22.90;;
34035;SDS011;63481;52.588;22.472;2023-04-01T04:30:21;31.80;;;22.50;;
34035;SDS011;63481;52.588;22.472;2023-04-01T04:31:18;36.60;;;23.60;;
34035;SDS011;63481;52.588;22.472;2023-04-01T04:32:15;36.50;;;23.50;;
34035;SDS011;63481;52.588;22.472;2023-04-01T04:33:09;33.60;;;24.10;;
34035;SDS011;63481;52.588;22.472;2023-04-01T04:34:02;35.10;;;24.80;;
34035;SDS011;63481;52.588;22.472;2023-04-01T04:34:57;37.80;;;24.70;;
34035;SDS011;63481;52.588;22.472;2023-04-01T04:35:51;38.00;;;24.70;;
34035;SDS011;63481;52.588;22.472;2023-04-01T04:36:44;34.40;;;23.50;;
34035;SDS011;63481;52.588;22.472;2023-04-01T04:37:38;38.40;;;23.60;;
34035;SDS011;63481;52.588;22.472;2023-04-01T04:38:31;36.40;;;25.00;;
34035;SDS011;63481;52.588;22.472;2023-04-01T04:39:26;40.20;;;24.70;;
34035;SDS011;63481;52.588;22.472;2023-04-01T04:40:19;37.70;;;26.00;;
34035;SDS011;63481;52.588;22.472;2023-04-01T04:41:15;37.30;;;24.20;;
34035;SDS011;63481;52.588;22.472;2023-04-01T04:42:12;38.30;;;23.90;;
34035;SDS011;63481;52.588;22.472;2023-04-01T04:43:05;35.50;;;24.30;;
34035;SDS011;63481;52.588;22.472;2023-04-01T04:43:59;37.10;;;25.20;;
34035;SDS011;63481;52.588;22.472;2023-04-01T04:44:52;39.60;;;25.40;;
34035;SDS011;63481;52.588;22.472;2023-04-01T04:45:46;34.80;;;24.70;;
34035;SDS011;63481;52.588;22.472;2023-04-01T04:46:38;36.00;;;24.30;;
34035;SDS011;63481;52.588;22.472;2023-04-01T04:47:37;36.80;;;24.80;;
34035;SDS011;63481;52.588;22.472;2023-04-01T04:48:31;36.10;;;23.40;;
34035;SDS011;63481;52.588;22.472;2023-04-01T04:49:24;34.90;;;24.10;;
34035;SDS011;63481;52.588;22.472;2023-04-01T04:50:17;35.40;;;24.70;;
34035;SDS011;63481;52.588;22.472;2023-04-01T04:51:14;37.40;;;25.40;;
34035;SDS011;63481;52.588;22.472;2023-04-01T04:52:08;36.00;;;24.90;;
34035;SDS011;63481;52.588;22.472;2023-04-01T04:53:02;33.40;;;25.00;;
34035;SDS011;63481;52.588;22.472;2023-04-01T04:53:58;34.70;;;24.40;;
34035;SDS011;63481;52.588;22.472;2023-04-01T04:54:59;37.70;;;24.50;;
34035;SDS011;63481;52.588;22.472;2023-04-01T04:55:52;34.80;;;24.70;;
34035;SDS011;63481;52.588;22.472;2023-04-01T04:56:59;34.90;;;24.00;;
34035;SDS011;63481;52.588;22.472;2023-04-01T04:57:54;38.00;;;25.70;;
34035;SDS011;63481;52.588;22.472;2023-04-01T04:58:48;35.80;;;24.80;;
34035;SDS011;63481;52.588;22.472;2023-04-01T04:59:45;34.40;;;24.10;;
34035;SDS011;63481;52.588;22.472;2023-04-01T05:00:42;34.20;;;24.50;;
34035;SDS011;63481;52.588;22.472;2023-04-01T05:01:44;41.80;;;24.40;;
34035;SDS011;63481;52.588;22.472;2023-04-01T05:02:38;35.70;;;24.40;;
34035;SDS011;63481;52.588;22.472;2023-04-01T05:03:31;35.50;;;25.30;;
34035;SDS011;63481;52.588;22.472;2023-04-01T05:04:24;33.50;;;24.30;;
34035;SDS011;63481;52.588;22.472;2023-04-01T05:05:17;34.80;;;24.50;;
34035;SDS011;63481;52.588;22.472;2023-04-01T05:06:12;34.00;;;22.90;;
34035;SDS011;63481;52.588;22.472;2023-04-01T05:07:06;38.30;;;25.10;;
34035;SDS011;63481;52.588;22.472;2023-04-01T05:07:59;36.20;;;24.60;;
34035;SDS011;63481;52.588;22.472;2023-04-01T05:08:52;33.60;;;24.20;;
34035;SDS011;63481;52.588;22.472;2023-04-01T05:09:44;32.00;;;23.20;;
34035;SDS011;63481;52.588;22.472;2023-04-01T05:10:38;35.00;;;25.20;;
34035;SDS011;63481;52.588;22.472;2023-04-01T05:11:30;36.00;;;24.00;;
34035;SDS011;63481;52.588;22.472;2023-04-01T05:12:23;35.00;;;24.20;;
34035;SDS011;63481;52.588;22.472;2023-04-01T05:13:24;33.00;;;23.50;;
34035;SDS011;63481;52.588;22.472;2023-04-01T05:14:17;31.20;;;23.70;;
34035;SDS011;63481;52.588;22.472;2023-04-01T05:15:17;33.50;;;23.20;;
34035;SDS011;63481;52.588;22.472;2023-04-01T05:16:11;33.70;;;22.40;;
34035;SDS011;63481;52.588;22.472;2023-04-01T05:17:09;32.80;;;22.90;;
34035;SDS011;63481;52.588;22.472;2023-04-01T05:18:05;29.30;;;21.20;;
34035;SDS011;63481;52.588;22.472;2023-04-01T05:18:57;32.30;;;22.30;;
34035;SDS011;63481;52.588;22.472;2023-04-01T05:19:50;31.60;;;21.20;;
34035;SDS011;63481;52.588;22.472;2023-04-01T05:20:49;29.90;;;21.80;;
34035;SDS011;63481;52.588;22.472;2023-04-01T05:22:35;35.00;;;21.80;;
34035;SDS011;63481;52.588;22.472;2023-04-01T05:23:30;30.20;;;22.10;;
34035;SDS011;63481;52.588;22.472;2023-04-01T05:24:23;32.40;;;21.70;;
34035;SDS011;63481;52.588;22.472;2023-04-01T05:25:16;29.90;;;21.20;;
34035;SDS011;63481;52.588;22.472;2023-04-01T05:26:12;28.80;;;20.30;;
34035;SDS011;63481;52.588;22.472;2023-04-01T05:27:06;29.20;;;20.50;;
34035;SDS011;63481;52.588;22.472;2023-04-01T05:27:59;28.40;;;19.70;;
34035;SDS011;63481;52.588;22.472;2023-04-01T05:28:51;32.00;;;19.50;;
34035;SDS011;63481;52.588;22.472;2023-04-01T05:29:44;27.30;;;20.10;;
34035;SDS011;63481;52.588;22.472;2023-04-01T05:30:51;28.80;;;20.00;;
34035;SDS011;63481;52.588;22.472;2023-04-01T05:31:49;30.80;;;21.40;;
34035;SDS011;63481;52.588;22.472;2023-04-01T05:32:42;28.50;;;20.00;;
34035;SDS011;63481;52.588;22.472;2023-04-01T05:33:35;28.80;;;19.90;;
34035;SDS011;63481;52.588;22.472;2023-04-01T05:34:28;27.10;;;19.90;;
34035;SDS011;63481;52.588;22.472;2023-04-01T05:35:21;29.90;;;20.50;;
34035;SDS011;63481;52.588;22.472;2023-04-01T05:36:14;30.70;;;21.10;;
34035;SDS011;63481;52.588;22.472;2023-04-01T05:37:08;29.70;;;20.90;;
34035;SDS011;63481;52.588;22.472;2023-04-01T05:38:02;28.20;;;20.00;;
34035;SDS011;63481;52.588;22.472;2023-04-01T05:38:55;30.00;;;20.80;;
34035;SDS011;63481;52.588;22.472;2023-04-01T05:39:48;31.80;;;20.20;;
34035;SDS011;63481;52.588;22.472;2023-04-01T05:40:42;31.20;;;21.10;;
34035;SDS011;63481;52.588;22.472;2023-04-01T05:41:35;26.60;;;19.80;;